createdAt,value
2022-12-11T00:00:54.177Z,0.57
2022-12-11T00:03:22.034Z,0.57
2022-12-11T00:05:49.975Z,0.58
2022-12-11T00:08:17.887Z,0.59
2022-12-11T00:10:50.602Z,0.58
2022-12-11T00:13:18.425Z,0.59
2022-12-11T00:15:46.204Z,0.58
2022-12-11T00:18:14.885Z,0.56
2022-12-11T00:20:42.714Z,0.53
2022-12-11T00:23:10.653Z,0.53
2022-12-11T00:25:45.494Z,0.50
2022-12-11T00:28:21.685Z,0.47
2022-12-11T00:30:49.518Z,0.48
2022-12-11T00:33:17.346Z,0.50
2022-12-11T00:35:46.536Z,0.52
2022-12-11T00:38:19.065Z,0.51
2022-12-11T00:40:46.833Z,0.53
2022-12-11T00:43:14.682Z,0.55
2022-12-11T00:45:43.888Z,0.53
2022-12-11T00:48:12.233Z,0.54
2022-12-11T00:50:40.435Z,0.51
2022-12-11T00:53:08.340Z,0.53
2022-12-11T00:55:40.295Z,0.53
2022-12-11T00:58:08.325Z,0.49
2022-12-11T01:00:36.127Z,0.43
2022-12-11T01:03:04.098Z,0.43
2022-12-11T01:05:31.969Z,0.41
2022-12-11T01:07:59.877Z,0.40
2022-12-11T01:10:27.875Z,0.40
2022-12-11T01:12:58.015Z,0.42
2022-12-11T01:15:27.904Z,0.40
2022-12-11T01:17:55.918Z,0.40
2022-12-11T01:20:24.471Z,0.36
2022-12-11T01:22:56.486Z,0.37
2022-12-11T01:25:24.419Z,0.37
2022-12-11T01:27:53.146Z,0.35
2022-12-11T01:30:21.426Z,0.37
2022-12-11T01:32:49.265Z,0.36
2022-12-11T01:35:17.278Z,0.34
2022-12-11T01:37:45.102Z,0.28
2022-12-11T01:40:16.844Z,0.26
2022-12-11T01:42:44.858Z,0.24
2022-12-11T01:45:32.654Z,0.25
2022-12-11T01:48:06.974Z,0.26
2022-12-11T01:50:36.819Z,0.26
2022-12-11T01:53:06.085Z,0.25
2022-12-11T01:55:34.161Z,0.23
2022-12-11T01:58:02.628Z,0.21
2022-12-11T02:00:30.477Z,0.16
2022-12-11T02:02:58.267Z,0.18
2022-12-11T02:05:26.137Z,0.15
2022-12-11T02:07:56.524Z,0.10
2022-12-11T02:10:25.759Z,0.07
2022-12-11T02:12:55.137Z,0.05
2022-12-11T02:15:26.408Z,0.02
2022-12-11T02:18:12.963Z,0.00
2022-12-11T02:20:50.335Z,-0.04
2022-12-11T02:23:36.730Z,-0.03
2022-12-11T02:26:38.376Z,0.01
2022-12-11T02:29:11.935Z,0.02
2022-12-11T02:31:45.369Z,0.04
2022-12-11T02:34:14.020Z,0.03
2022-12-11T02:36:44.406Z,0.03
2022-12-11T02:39:14.194Z,0.03
2022-12-11T02:41:44.202Z,0.04
2022-12-11T02:44:13.378Z,0.04
2022-12-11T02:46:41.387Z,0.03
2022-12-11T02:49:09.212Z,-0.01
2022-12-11T02:51:39.007Z,-0.01
2022-12-11T02:54:08.327Z,-0.01
2022-12-11T02:56:40.242Z,-0.03
2022-12-11T02:59:14.362Z,-0.04
2022-12-11T03:01:42.455Z,-0.03
2022-12-11T03:04:10.272Z,-0.03
2022-12-11T03:06:41.232Z,-0.02
2022-12-11T03:09:09.125Z,-0.03
2022-12-11T03:11:36.948Z,-0.02
2022-12-11T03:14:04.809Z,-0.09
2022-12-11T03:16:38.281Z,-0.09
2022-12-11T03:19:37.824Z,-0.12
2022-12-11T03:22:12.447Z,-0.13
2022-12-11T03:24:44.161Z,-0.15
2022-12-11T03:27:21.185Z,-0.19
2022-12-11T03:29:59.890Z,-0.19
2022-12-11T19:37:50.157Z,-2.85
2022-12-11T19:40:19.118Z,-2.84
2022-12-11T19:42:46.924Z,-2.85
2022-12-11T19:45:14.880Z,-2.95
2022-12-11T19:47:42.860Z,-3.06
2022-12-11T19:50:11.179Z,-3.07
2022-12-11T19:52:44.486Z,-3.09
2022-12-11T19:55:16.126Z,-3.05
2022-12-11T19:57:44.005Z,-3.08
2022-12-11T20:00:12.279Z,-3.14
2022-12-11T20:02:40.120Z,-3.09
2022-12-11T20:05:09.174Z,-3.06
2022-12-11T20:07:37.456Z,-3.03
2022-12-11T20:10:05.646Z,-3.01
2022-12-11T20:12:33.895Z,-2.97
2022-12-11T20:15:01.781Z,-2.93
2022-12-11T20:17:29.752Z,-2.96
2022-12-11T20:19:57.888Z,-2.99
2022-12-11T20:22:25.912Z,-2.95
2022-12-11T20:24:53.702Z,-2.93
2022-12-11T20:27:21.438Z,-2.84
2022-12-11T20:29:49.262Z,-2.79
2022-12-11T20:32:17.137Z,-2.72
2022-12-11T20:34:44.874Z,-2.69
2022-12-11T20:37:12.978Z,-2.65
2022-12-11T20:39:40.845Z,-2.61
2022-12-11T20:42:10.412Z,-2.59
2022-12-11T20:44:38.234Z,-2.58
2022-12-11T20:47:07.910Z,-2.56
2022-12-11T20:49:35.761Z,-2.52
2022-12-11T20:52:03.722Z,-2.49
2022-12-11T20:54:31.535Z,-2.44
2022-12-11T20:56:59.370Z,-2.46
2022-12-11T20:59:27.422Z,-2.47
2022-12-11T21:01:55.342Z,-2.66
2022-12-11T21:04:23.492Z,-2.67
2022-12-11T21:06:56.694Z,-2.66
2022-12-11T21:09:25.799Z,-2.64
2022-12-11T21:11:53.756Z,-2.65
2022-12-11T21:14:21.664Z,-2.62
2022-12-11T21:16:49.515Z,-2.65
2022-12-11T21:19:18.020Z,-2.69
2022-12-11T21:21:46.558Z,-2.75
2022-12-11T21:24:18.304Z,-2.71
2022-12-11T21:26:46.417Z,-2.69
2022-12-11T21:29:14.521Z,-2.66
2022-12-11T21:31:42.449Z,-2.62
2022-12-11T21:34:10.431Z,-2.60
2022-12-11T21:36:38.225Z,-2.57
2022-12-11T21:39:06.125Z,-2.51
2022-12-11T21:41:34.029Z,-2.47
2022-12-11T21:46:49.774Z,-2.40
2022-12-11T21:49:17.543Z,-2.37
2022-12-11T21:51:47.375Z,-2.36
2022-12-11T21:54:17.017Z,-2.38
2022-12-11T21:56:45.058Z,-2.40
2022-12-11T21:59:13.143Z,-2.35
2022-12-11T22:01:43.319Z,-2.35
2022-12-11T22:04:11.628Z,-2.35
2022-12-11T22:06:39.569Z,-2.35
2022-12-11T22:09:07.366Z,-2.33
2022-12-11T22:11:35.449Z,-2.29
2022-12-11T22:14:07.909Z,-2.31
2022-12-11T22:16:36.096Z,-2.30
2022-12-11T22:19:03.879Z,-2.31
2022-12-11T22:21:31.617Z,-2.30
2022-12-11T22:23:59.437Z,-2.24
2022-12-11T22:26:27.686Z,-2.27
2022-12-11T22:28:55.885Z,-2.27
2022-12-11T22:31:24.597Z,-2.26
2022-12-11T22:33:54.740Z,-2.28
2022-12-11T22:36:26.452Z,-2.28
2022-12-11T22:38:54.585Z,-2.27
2022-12-11T22:41:30.462Z,-2.24
2022-12-11T22:43:58.590Z,-2.25
2022-12-11T22:46:28.206Z,-2.24
2022-12-11T22:48:56.249Z,-2.24
2022-12-11T22:51:24.237Z,-2.22
2022-12-11T22:53:52.110Z,-2.23
2022-12-11T22:56:19.971Z,-2.24
2022-12-11T22:58:47.796Z,-2.26
2022-12-11T23:01:20.545Z,-2.24
2022-12-11T23:03:48.499Z,-2.23
2022-12-11T23:06:19.387Z,-2.19
2022-12-11T23:08:47.227Z,-2.17
2022-12-11T23:11:20.165Z,-2.14
2022-12-11T23:13:48.027Z,-2.12
2022-12-11T23:16:15.916Z,-2.10
2022-12-11T23:18:43.770Z,-2.11
2022-12-11T23:21:12.055Z,-2.10
2022-12-11T23:23:39.883Z,-2.08
2022-12-11T23:26:08.147Z,-2.08
2022-12-11T23:28:35.998Z,-2.06
2022-12-11T23:31:03.798Z,-2.07
2022-12-11T23:33:31.550Z,-2.06
2022-12-11T23:35:59.892Z,-2.11
2022-12-11T23:38:27.736Z,-2.11
2022-12-11T23:40:55.600Z,-2.09
2022-12-11T23:43:23.490Z,-2.11
2022-12-11T23:45:55.996Z,-2.07
2022-12-11T23:48:23.812Z,-2.04
2022-12-11T23:50:51.552Z,-2.04
2022-12-11T23:53:19.397Z,-2.05
2022-12-11T23:55:47.229Z,-2.05
2022-12-11T23:58:15.124Z,-2.05
